Time;durP1;ratioP1;P1;durP2;ratioP2;P2;SDS_P1;SDS_P2;PMS_P1;PMS_P2;Temp;Humidity;BMP_temperature;BMP_pressure;BME280_temperature;BME280_humidity;BME280_pressure;Samples;Min_cycle;Max_cycle;Signal;HPM_P1;HPM_P2
2022/05/07 00:00:17;;;;;;;;;;;;;;;21.31;43.72;102364.19;5008093;28;20052;-70
2022/05/07 00:02:42;;;;;;;;;;;;;;;21.39;43.59;102360.16;5012869;28;20031;-70
2022/05/07 00:05:08;;;;;;;;;;;;;;;21.40;43.52;102357.19;5007438;28;19972;-70
2022/05/07 00:07:33;;;;;;;;;;;;;;;21.46;43.62;102358.06;5003941;28;19921;-70
2022/05/07 00:09:58;;;;;;;;;;;;;;;21.42;43.07;102352.28;5010562;28;19925;-70
2022/05/07 00:12:24;;;;;;;;;;;;;;;21.60;42.94;102349.13;5008116;28;19922;-69
2022/05/07 00:14:49;;;;;;;;;;;;;;;21.45;42.78;102354.50;5011264;28;20310;-70
2022/05/07 00:20:01;;;;;;;;;;;;;;;21.38;43.62;102351.16;4988153;28;19922;-69
2022/05/07 00:22:26;;;;;;;;;;;;;;;21.42;43.08;102344.09;4980321;28;19918;-71
2022/05/07 00:24:52;;;;;;;;;;;;;;;21.52;43.11;102340.59;4983325;28;20786;-71
2022/05/07 00:27:17;;;;;;;;;;;;;;;21.24;44.09;102343.63;4987405;28;20425;-70
2022/05/07 00:29:42;;;;;;;;;;;;;;;21.35;43.45;102338.00;4982732;28;20001;-70
2022/05/07 00:32:08;;;;;;;;;;;;;;;21.35;43.55;102340.72;4988077;28;20037;-70
2022/05/07 00:34:34;;;;;;;;;;;;;;;21.33;43.69;102340.16;4982866;28;20429;-71
2022/05/07 00:36:59;;;;;;;;;;;;;;;21.42;43.09;102332.31;4985648;28;19918;-71
2022/05/07 00:39:25;;;;;;;;;;;;;;;21.41;42.85;102338.84;4983022;28;19922;-70
2022/05/07 00:41:51;;;;;;;;;;;;;;;21.51;43.09;102330.72;4987091;28;19917;-70
2022/05/07 00:44:16;;;;;;;;;;;;;;;21.25;43.58;102337.06;4993346;28;19922;-70
2022/05/07 00:46:42;;;;;;;;;;;;;;;21.16;44.22;102330.44;4993143;28;19921;-70
2022/05/07 00:49:07;;;;;;;;;;;;;;;21.16;43.91;102328.53;4993068;28;19953;-71
2022/05/07 00:51:35;;;;;;;;;;;;;;;21.35;43.70;102327.03;4993228;28;19964;-70
2022/05/07 00:54:05;;;;;;;;;;;;;;;21.25;43.77;102329.69;4993641;28;20397;-70
2022/05/07 00:56:31;;;;;;;;;;;;;;;21.09;44.53;102330.63;4983911;28;19956;-70
2022/05/07 00:58:57;;;;;;;;;;;;;;;21.07;44.74;102321.06;5015185;28;20011;-71
2022/05/07 01:01:22;;;;;;;;;;;;;;;21.03;44.69;102323.47;5015247;28;20399;-69
2022/05/07 01:03:49;;;;;;;;;;;;;;;20.99;44.90;102317.66;5014732;28;19925;-71
2022/05/07 01:06:15;;;;;;;;;;;;;;;21.19;44.42;102319.00;5015320;28;19914;-70
2022/05/07 01:08:41;;;;;;;;;;;;;;;21.22;44.24;102319.28;5014856;28;19921;-69
2022/05/07 01:11:06;;;;;;;;;;;;;;;21.22;44.12;102324.75;5014852;28;20004;-70
2022/05/07 01:13:32;;;;;;;;;;;;;;;21.22;44.01;102315.72;5014953;28;20013;-69
2022/05/07 01:15:58;;;;;;;;;;;;;;;21.17;44.36;102315.69;5018117;28;20016;-69
2022/05/07 01:18:23;;;;;;;;;;;;;;;21.26;43.86;102320.41;5034923;28;20357;-70
2022/05/07 01:20:49;;;;;;;;;;;;;;;21.03;44.80;102312.53;5030781;28;19921;-70
2022/05/07 01:23:15;;;;;;;;;;;;;;;21.12;44.07;102308.25;5014662;28;20004;-70
2022/05/07 01:25:40;;;;;;;;;;;;;;;21.37;44.00;102300.25;5014932;28;20041;-69
2022/05/07 01:28:05;;;;;;;;;;;;;;;21.29;44.14;102298.00;5013691;28;19953;-71
2022/05/07 01:30:31;;;;;;;;;;;;;;;21.11;44.65;102292.13;5014819;28;20404;-71
2022/05/07 01:32:56;;;;;;;;;;;;;;;21.38;43.92;102298.34;5015076;28;19917;-69
2022/05/07 01:35:21;;;;;;;;;;;;;;;21.24;44.18;102300.72;5014641;28;20013;-70
2022/05/07 01:37:47;;;;;;;;;;;;;;;21.21;44.49;102300.41;5014795;28;20012;-70
2022/05/07 01:40:12;;;;;;;;;;;;;;;21.20;43.98;102296.84;5014614;28;19929;-71
2022/05/07 01:42:37;;;;;;;;;;;;;;;21.28;44.04;102299.09;5014232;28;19922;-70
2022/05/07 01:45:03;;;;;;;;;;;;;;;21.11;44.33;102292.91;5015229;28;20084;-70
2022/05/07 01:50:12;;;;;;;;;;;;;;;21.24;43.79;102297.16;5014569;28;19933;-70
2022/05/07 01:52:37;;;;;;;;;;;;;;;21.16;44.17;102292.97;5014451;28;19953;-70
2022/05/07 01:55:03;;;;;;;;;;;;;;;20.93;44.47;102288.63;5014246;28;19933;-70
2022/05/07 01:57:28;;;;;;;;;;;;;;;20.75;45.05;102294.47;5014395;28;19918;-68
2022/05/07 01:59:54;;;;;;;;;;;;;;;20.78;44.70;102291.22;5014509;28;19914;-70
2022/05/07 02:02:19;;;;;;;;;;;;;;;20.87;44.68;102286.13;5012752;28;19928;-70
2022/05/07 02:04:44;;;;;;;;;;;;;;;20.83;44.67;102285.78;5013880;28;20366;-70
2022/05/07 02:07:10;;;;;;;;;;;;;;;20.43;45.80;102285.38;5013918;28;19963;-70
2022/05/07 02:09:36;;;;;;;;;;;;;;;20.85;44.68;102289.09;5014175;28;19972;-70
2022/05/07 02:12:03;;;;;;;;;;;;;;;20.94;44.46;102281.25;5014292;28;19917;-70
2022/05/07 02:14:29;;;;;;;;;;;;;;;20.91;44.44;102285.31;5014221;28;19956;-70
2022/05/07 02:16:55;;;;;;;;;;;;;;;20.83;44.94;102282.25;5016377;28;20255;-71
2022/05/07 02:19:20;;;;;;;;;;;;;;;20.82;44.70;102292.34;5025805;28;20012;-70
2022/05/07 02:21:45;;;;;;;;;;;;;;;21.13;43.74;102287.22;5013951;28;19917;-70
2022/05/07 02:24:10;;;;;;;;;;;;;;;21.08;44.37;102281.69;5014395;28;20011;-70
2022/05/07 02:26:36;;;;;;;;;;;;;;;20.86;44.41;102287.19;5012474;28;20005;-71
2022/05/07 02:29:04;;;;;;;;;;;;;;;20.92;44.68;102284.25;5013886;28;20365;-70
2022/05/07 02:31:29;;;;;;;;;;;;;;;20.85;44.71;102282.81;5014729;28;20396;-70
2022/05/07 02:33:54;;;;;;;;;;;;;;;20.92;44.65;102281.53;5014359;28;19929;-70
2022/05/07 02:36:19;;;;;;;;;;;;;;;21.00;44.33;102274.75;5014475;28;19913;-70
2022/05/07 02:38:44;;;;;;;;;;;;;;;20.91;44.60;102279.84;5002405;28;19929;-71
2022/05/07 02:43:53;;;;;;;;;;;;;;;21.10;44.02;102284.97;4994160;28;19976;-70
2022/05/07 02:46:18;;;;;;;;;;;;;;;20.70;45.18;102277.19;4993705;28;19921;-70
2022/05/07 02:48:45;;;;;;;;;;;;;;;21.00;44.60;102282.94;4993784;28;19923;-70
2022/05/07 02:51:11;;;;;;;;;;;;;;;20.85;44.85;102280.09;4994694;28;19921;-71
2022/05/07 02:53:36;;;;;;;;;;;;;;;20.89;44.63;102273.81;4994350;28;19928;-70
2022/05/07 02:56:02;;;;;;;;;;;;;;;20.90;44.46;102267.28;4994215;28;19951;-71
2022/05/07 02:58:27;;;;;;;;;;;;;;;21.19;44.15;102273.31;4994202;28;19925;-70
2022/05/07 03:00:52;;;;;;;;;;;;;;;20.98;44.32;102268.72;4994325;28;19976;-71
2022/05/07 03:03:18;;;;;;;;;;;;;;;20.82;45.05;102273.22;4994226;28;19920;-71
2022/05/07 03:05:43;;;;;;;;;;;;;;;21.02;44.71;102271.78;4994032;28;20416;-70
2022/05/07 03:08:08;;;;;;;;;;;;;;;20.83;45.16;102268.59;4994062;28;19926;-71
2022/05/07 03:10:33;;;;;;;;;;;;;;;21.03;44.69;102273.44;4994003;28;19925;-69
2022/05/07 03:12:59;;;;;;;;;;;;;;;21.06;44.76;102275.66;4995698;28;20055;-70
2022/05/07 03:15:24;;;;;;;;;;;;;;;20.96;44.63;102279.91;5025253;28;19961;-70
2022/05/07 03:17:49;;;;;;;;;;;;;;;21.19;44.35;102286.97;4993656;28;19918;-70
2022/05/07 03:20:17;;;;;;;;;;;;;;;20.96;44.91;102284.56;4993891;28;19922;-70
2022/05/07 03:22:42;;;;;;;;;;;;;;;20.85;45.10;102280.88;4994061;28;19922;-70
2022/05/07 03:25:08;;;;;;;;;;;;;;;21.01;44.59;102276.44;4997374;28;19971;-71
2022/05/07 03:27:33;;;;;;;;;;;;;;;20.86;45.29;102276.25;4997632;28;19918;-71
2022/05/07 03:29:58;;;;;;;;;;;;;;;20.91;45.03;102281.78;4997987;28;20416;-70
2022/05/07 03:32:24;;;;;;;;;;;;;;;20.77;45.27;102275.91;4997680;28;19922;-71
2022/05/07 03:37:51;;;;;;;;;;;;;;;21.04;44.74;102275.09;4997722;28;19929;-71
2022/05/07 03:40:17;;;;;;;;;;;;;;;21.05;44.61;102276.75;4997633;28;19925;-70
2022/05/07 03:42:43;;;;;;;;;;;;;;;20.51;45.68;102273.16;4997486;28;19913;-71
2022/05/07 03:45:08;;;;;;;;;;;;;;;20.93;44.42;102276.88;4997705;28;19941;-70
2022/05/07 03:47:34;;;;;;;;;;;;;;;20.64;45.09;102276.31;4997120;28;19925;-71
2022/05/07 03:49:59;;;;;;;;;;;;;;;20.85;45.07;102278.16;4997717;28;19922;-70
2022/05/07 03:55:08;;;;;;;;;;;;;;;20.74;44.90;102281.88;4996663;28;20445;-69
2022/05/07 03:57:33;;;;;;;;;;;;;;;20.84;44.79;102289.34;4997428;28;19918;-70
2022/05/07 04:00:00;;;;;;;;;;;;;;;20.62;45.56;102289.41;4997496;28;20271;-70
2022/05/07 04:02:25;;;;;;;;;;;;;;;20.49;46.04;102292.53;4997112;28;19924;-70
2022/05/07 04:04:51;;;;;;;;;;;;;;;20.89;44.97;102289.41;4996554;28;19933;-71
2022/05/07 04:07:16;;;;;;;;;;;;;;;20.23;46.73;102293.31;4995179;28;19925;-70
2022/05/07 04:09:42;;;;;;;;;;;;;;;20.59;45.65;102292.66;5000872;28;19918;-71
2022/05/07 04:12:08;;;;;;;;;;;;;;;20.88;44.98;102293.22;5014045;28;20369;-71
2022/05/07 04:14:33;;;;;;;;;;;;;;;20.93;44.68;102296.03;5016242;28;19922;-71
2022/05/07 04:16:58;;;;;;;;;;;;;;;20.50;45.78;102296.91;5033080;28;20418;-71
2022/05/07 04:19:23;;;;;;;;;;;;;;;20.96;44.44;102293.59;5035869;28;19925;-71
2022/05/07 04:21:49;;;;;;;;;;;;;;;21.07;44.07;102294.53;5002330;28;19921;-70
2022/05/07 04:24:14;;;;;;;;;;;;;;;20.98;44.44;102298.78;4997383;28;19914;-71
2022/05/07 04:26:39;;;;;;;;;;;;;;;21.16;43.72;102298.44;4997117;28;19922;-71
2022/05/07 04:29:04;;;;;;;;;;;;;;;21.15;44.00;102294.06;4996733;28;19925;-70
2022/05/07 04:31:30;;;;;;;;;;;;;;;21.36;43.24;102295.06;4997185;28;19945;-71
2022/05/07 04:33:55;;;;;;;;;;;;;;;21.26;43.74;102303.19;4996646;28;19921;-69
2022/05/07 04:36:20;;;;;;;;;;;;;;;21.31;43.75;102303.19;4997445;28;19924;-70
2022/05/07 04:38:45;;;;;;;;;;;;;;;21.36;43.76;102301.38;4996482;28;20405;-72
2022/05/07 04:41:11;;;;;;;;;;;;;;;21.40;43.49;102307.13;4996771;28;20337;-70
2022/05/07 04:43:36;;;;;;;;;;;;;;;21.50;42.97;102307.22;4996769;28;20434;-70
2022/05/07 04:46:01;;;;;;;;;;;;;;;21.69;42.88;102312.00;4996325;28;20377;-70
2022/05/07 04:48:27;;;;;;;;;;;;;;;21.36;43.38;102306.00;4997018;28;20403;-70
2022/05/07 04:51:07;;;;;;;;;;;;;;;21.77;41.90;102311.50;4996885;28;19922;-71
2022/05/07 04:53:32;;;;;;;;;;;;;;;21.96;41.56;102309.19;5009724;28;19928;-70
2022/05/07 04:55:58;;;;;;;;;;;;;;;21.35;42.93;102312.53;5016170;28;19925;-72
2022/05/07 04:58:23;;;;;;;;;;;;;;;21.82;41.71;102313.47;5011407;28;20003;-72
2022/05/07 05:00:48;;;;;;;;;;;;;;;22.11;41.27;102314.72;4998922;28;19975;-72
2022/05/07 05:03:13;;;;;;;;;;;;;;;22.35;40.97;102315.13;5016605;28;19968;-70
2022/05/07 05:05:40;;;;;;;;;;;;;;;22.15;41.88;102315.03;5013845;28;19922;-71
2022/05/07 05:08:05;;;;;;;;;;;;;;;21.89;42.35;102315.97;5029066;28;19921;-71
2022/05/07 05:10:30;;;;;;;;;;;;;;;22.11;41.90;102314.72;5035381;28;20036;-71
2022/05/07 05:12:56;;;;;;;;;;;;;;;22.29;41.46;102319.75;5035700;28;19921;-71
2022/05/07 05:15:21;;;;;;;;;;;;;;;22.15;41.99;102321.31;5035644;28;19971;-71
2022/05/07 05:17:46;;;;;;;;;;;;;;;22.30;41.62;102321.41;5035279;28;19921;-70
2022/05/07 05:20:11;;;;;;;;;;;;;;;22.39;41.18;102327.19;5035560;28;20023;-71
2022/05/07 05:22:37;;;;;;;;;;;;;;;22.50;40.96;102328.91;5035361;28;19924;-69
2022/05/07 05:25:05;;;;;;;;;;;;;;;22.57;41.18;102326.75;5035538;28;19925;-70
2022/05/07 05:27:31;;;;;;;;;;;;;;;22.08;41.79;102337.19;5035332;28;20284;-70
2022/05/07 05:29:56;;;;;;;;;;;;;;;22.19;41.97;102332.59;5035193;28;19921;-70
2022/05/07 05:32:21;;;;;;;;;;;;;;;22.31;41.37;102331.25;5034981;28;19918;-71
2022/05/07 05:34:48;;;;;;;;;;;;;;;22.20;41.64;102342.44;5034795;28;19925;-72
2022/05/07 05:37:14;;;;;;;;;;;;;;;22.56;40.87;102341.53;5035036;28;19917;-69
2022/05/07 05:39:39;;;;;;;;;;;;;;;22.39;41.01;102338.97;5035132;28;19945;-70
2022/05/07 05:42:04;;;;;;;;;;;;;;;22.64;40.75;102341.03;5035186;28;19913;-70
2022/05/07 05:44:30;;;;;;;;;;;;;;;22.74;39.97;102342.97;5035001;28;20373;-71
2022/05/07 05:46:55;;;;;;;;;;;;;;;22.42;40.09;102343.94;5033563;28;19964;-70
2022/05/07 05:49:20;;;;;;;;;;;;;;;22.72;39.41;102342.44;5034716;28;19925;-70
2022/05/07 05:51:46;;;;;;;;;;;;;;;22.70;39.37;102346.25;5034520;28;19917;-70
2022/05/07 05:54:11;;;;;;;;;;;;;;;22.35;40.23;102339.75;5034677;28;20360;-70
2022/05/07 05:56:36;;;;;;;;;;;;;;;22.18;39.83;102339.97;5034012;28;19925;-70
2022/05/07 05:59:01;;;;;;;;;;;;;;;22.29;40.19;102341.66;5034315;28;20407;-70
2022/05/07 06:01:27;;;;;;;;;;;;;;;22.41;39.70;102349.66;5034652;28;20222;-70
2022/05/07 06:03:52;;;;;;;;;;;;;;;22.20;39.12;102345.19;5031692;28;20368;-70
2022/05/07 06:06:32;;;;;;;;;;;;;;;22.38;39.33;102345.56;5014784;28;20004;-70
2022/05/07 06:08:58;;;;;;;;;;;;;;;22.90;38.64;102345.47;5014620;28;19933;-70
2022/05/07 06:11:23;;;;;;;;;;;;;;;22.26;39.12;102341.38;5013885;28;19937;-69
2022/05/07 06:13:48;;;;;;;;;;;;;;;22.53;38.59;102344.78;5014110;28;19921;-71
2022/05/07 06:16:14;;;;;;;;;;;;;;;22.67;38.66;102351.44;5014060;28;19925;-71
2022/05/07 06:18:40;;;;;;;;;;;;;;;22.43;39.22;102347.47;5014024;28;19965;-70
2022/05/07 06:21:05;;;;;;;;;;;;;;;23.21;37.59;102343.63;5014365;28;20019;-70
2022/05/07 06:23:30;;;;;;;;;;;;;;;23.31;37.13;102346.41;5013935;28;19924;-70
2022/05/07 06:28:40;;;;;;;;;;;;;;;22.56;38.62;102352.47;5013954;28;19995;-70
2022/05/07 06:31:05;;;;;;;;;;;;;;;22.35;39.75;102354.28;5031046;28;19964;-69
2022/05/07 06:33:32;;;;;;;;;;;;;;;22.86;38.68;102352.59;5033202;28;19921;-70
2022/05/07 06:35:57;;;;;;;;;;;;;;;22.58;39.51;102355.81;5034258;28;19909;-70
2022/05/07 06:38:22;;;;;;;;;;;;;;;22.80;39.15;102355.59;5033484;28;20345;-69
2022/05/07 06:40:48;;;;;;;;;;;;;;;22.54;40.07;102363.69;5033374;28;19928;-71
2022/05/07 06:43:13;;;;;;;;;;;;;;;23.04;39.22;102354.84;5033458;28;19921;-70
2022/05/07 06:45:38;;;;;;;;;;;;;;;22.08;40.97;102364.56;5033486;28;19956;-70
2022/05/07 06:48:08;;;;;;;;;;;;;;;21.99;42.42;102365.31;5033628;28;19913;-71
2022/05/07 06:50:52;;;;;;;;;;;;;;;21.47;42.83;102365.16;5033178;28;19925;-69
2022/05/07 06:53:17;;;;;;;;;;;;;;;22.70;40.85;102364.63;5033331;28;19921;-69
2022/05/07 06:55:54;;;;;;;;;;;;;;;21.63;43.60;102364.22;5032921;28;19925;-69
2022/05/07 06:58:24;;;;;;;;;;;;;;;21.29;44.62;102366.38;5033134;28;19925;-70
2022/05/07 07:00:50;;;;;;;;;;;;;;;21.82;44.88;102370.94;5018109;28;20399;-70
2022/05/07 07:03:15;;;;;;;;;;;;;;;21.62;45.73;102373.53;4994149;28;19918;-69
2022/05/07 07:05:40;;;;;;;;;;;;;;;22.18;45.17;102378.31;4993469;28;19922;-69
2022/05/07 07:08:06;;;;;;;;;;;;;;;22.01;46.33;102382.31;4993565;28;19953;-71
2022/05/07 07:10:31;;;;;;;;;;;;;;;21.42;46.18;102376.06;4993326;28;19926;-70
2022/05/07 07:12:56;;;;;;;;;;;;;;;21.67;46.20;102374.38;4993817;28;19917;-70
2022/05/07 07:15:23;;;;;;;;;;;;;;;21.78;46.10;102376.09;4993932;28;19941;-70
2022/05/07 07:17:48;;;;;;;;;;;;;;;21.25;46.90;102383.53;4993867;28;20382;-70
2022/05/07 07:20:14;;;;;;;;;;;;;;;21.55;46.50;102381.09;4993915;28;19929;-70
2022/05/07 07:22:58;;;;;;;;;;;;;;;20.90;47.54;102382.06;4994322;28;19924;-69
2022/05/07 07:25:23;;;;;;;;;;;;;;;21.70;46.46;102387.53;4998225;28;19928;-71
2022/05/07 07:27:48;;;;;;;;;;;;;;;21.25;47.70;102384.38;5001326;28;20285;-70
2022/05/07 07:30:13;;;;;;;;;;;;;;;21.13;47.81;102380.97;4999657;28;19926;-72
2022/05/07 07:32:39;;;;;;;;;;;;;;;21.63;46.07;102381.47;5001384;28;19941;-70
2022/05/07 07:35:05;;;;;;;;;;;;;;;21.62;46.33;102379.00;5000564;28;19929;-69
2022/05/07 07:37:32;;;;;;;;;;;;;;;21.73;46.88;102377.97;5009625;28;19917;-70
2022/05/07 07:40:00;;;;;;;;;;;;;;;21.76;46.25;102382.91;5001946;28;19929;-69
2022/05/07 07:42:25;;;;;;;;;;;;;;;22.21;45.06;102383.25;4996470;28;19914;-68
2022/05/07 07:47:56;;;;;;;;;;;;;;;21.88;45.66;102391.00;5004675;28;19956;-69
2022/05/07 07:50:19;;;;;;;;;;;;;;;22.40;45.56;102389.13;5012863;28;19933;-69
2022/05/07 07:52:45;;;;;;;;;;;;;;;21.94;46.08;102390.75;5001136;28;19921;-69
2022/05/07 07:55:10;;;;;;;;;;;;;;;22.41;44.80;102386.09;5002093;28;19976;-69
2022/05/07 07:57:37;;;;;;;;;;;;;;;22.20;45.44;102391.72;4995893;28;20427;-69
2022/05/07 08:00:03;;;;;;;;;;;;;;;22.09;45.18;102398.25;4999574;28;19918;-68
2022/05/07 08:02:28;;;;;;;;;;;;;;;21.91;46.11;102390.44;5006187;28;19926;-67
2022/05/07 08:04:54;;;;;;;;;;;;;;;22.34;45.59;102396.50;5001464;28;20297;-66
2022/05/07 08:13:05;;;;;;;;;;;;;;;22.64;44.50;102395.84;5009743;28;19929;-70
2022/05/07 08:15:31;;;;;;;;;;;;;;;22.51;45.95;102399.03;5005647;28;19917;-70
2022/05/07 08:17:56;;;;;;;;;;;;;;;23.05;44.28;102397.63;5010817;28;19992;-69
2022/05/07 08:20:21;;;;;;;;;;;;;;;23.57;43.34;102404.88;5013492;28;19921;-69
2022/05/07 08:22:46;;;;;;;;;;;;;;;23.80;42.88;102405.16;5007337;28;19929;-70
2022/05/07 08:25:11;;;;;;;;;;;;;;;23.79;43.12;102402.66;5001873;28;19922;-70
2022/05/07 08:27:37;;;;;;;;;;;;;;;23.40;43.49;102405.97;5006169;28;19918;-71
2022/05/07 08:30:04;;;;;;;;;;;;;;;23.13;44.69;102399.84;5008098;28;19929;-71
2022/05/07 08:32:29;;;;;;;;;;;;;;;23.10;44.29;102402.28;5005870;28;19968;-71
2022/05/07 08:34:54;;;;;;;;;;;;;;;24.13;42.65;102401.84;5008465;28;19925;-71
2022/05/07 08:37:19;;;;;;;;;;;;;;;24.13;42.57;102401.84;4998468;28;19925;-70
2022/05/07 08:39:44;;;;;;;;;;;;;;;23.93;43.07;102404.59;5002728;28;20012;-70
2022/05/07 08:42:10;;;;;;;;;;;;;;;23.86;43.63;102405.97;5001536;28;19918;-70
2022/05/07 08:44:35;;;;;;;;;;;;;;;24.24;42.36;102402.63;5003164;28;19922;-70
2022/05/07 08:47:00;;;;;;;;;;;;;;;23.36;44.38;102413.09;5013136;28;19922;-71
2022/05/07 08:49:25;;;;;;;;;;;;;;;24.69;41.95;102401.66;5006954;28;19918;-70
2022/05/07 08:51:53;;;;;;;;;;;;;;;23.98;44.07;102401.81;5004472;28;20380;-70
2022/05/07 08:54:18;;;;;;;;;;;;;;;24.17;42.11;102397.44;4999417;28;19910;-71
2022/05/07 08:56:44;;;;;;;;;;;;;;;24.67;41.88;102406.63;5011411;28;19925;-71
2022/05/07 08:59:09;;;;;;;;;;;;;;;24.92;41.51;102403.78;5001178;28;19917;-70
2022/05/07 09:01:34;;;;;;;;;;;;;;;24.57;41.67;102404.72;5010691;28;19921;-71
2022/05/07 09:04:07;;;;;;;;;;;;;;;25.27;40.63;102409.06;5012584;28;19944;-71
2022/05/07 09:06:32;;;;;;;;;;;;;;;25.43;40.03;102412.56;5008976;28;19917;-71
2022/05/07 09:08:58;;;;;;;;;;;;;;;25.97;39.58;102418.72;5004154;28;20392;-70
2022/05/07 09:11:23;;;;;;;;;;;;;;;26.72;37.89;102406.91;5005846;28;19933;-70
2022/05/07 09:14:04;;;;;;;;;;;;;;;25.42;39.70;102414.50;5001135;28;19918;-71
2022/05/07 09:16:45;;;;;;;;;;;;;;;25.02;40.35;102410.03;5007011;28;19965;-70
2022/05/07 09:19:20;;;;;;;;;;;;;;;23.57;42.41;102421.34;5004560;28;19921;-70
2022/05/07 09:21:45;;;;;;;;;;;;;;;23.81;42.58;102416.94;5006607;28;19917;-70
2022/05/07 09:24:10;;;;;;;;;;;;;;;25.00;39.96;102412.25;5004432;28;20334;-70
2022/05/07 09:26:39;;;;;;;;;;;;;;;24.65;40.59;102406.09;5009363;28;19921;-71
2022/05/07 09:29:07;;;;;;;;;;;;;;;24.16;41.75;102411.44;5004958;28;19918;-71
2022/05/07 09:31:33;;;;;;;;;;;;;;;25.39;39.17;102405.97;5002823;28;19926;-70
2022/05/07 09:36:43;;;;;;;;;;;;;;;24.39;41.19;102413.59;5004892;28;19940;-70
2022/05/07 09:39:13;;;;;;;;;;;;;;;24.28;41.89;102412.78;5001562;28;19918;-70
2022/05/07 09:41:43;;;;;;;;;;;;;;;24.95;41.00;102415.03;4999738;28;19926;-69
2022/05/07 09:44:09;;;;;;;;;;;;;;;24.84;41.48;102405.22;5008474;28;20465;-69
2022/05/07 09:46:34;;;;;;;;;;;;;;;26.01;38.69;102406.84;5007720;28;20008;-69
2022/05/07 09:49:01;;;;;;;;;;;;;;;25.90;38.44;102410.81;5003823;28;19955;-69
2022/05/07 09:51:28;;;;;;;;;;;;;;;25.09;40.28;102407.00;5003645;28;19928;-70
2022/05/07 09:59:21;;;;;;;;;;;;;;;26.50;38.91;102414.88;5012734;28;19925;-69
2022/05/07 10:01:56;;;;;;;;;;;;;;;26.41;38.33;102408.38;5004504;28;19925;-70
2022/05/07 10:04:32;;;;;;;;;;;;;;;26.72;37.60;102417.97;5005457;28;19918;-70
2022/05/07 10:07:18;;;;;;;;;;;;;;;27.65;35.18;102412.47;5003801;28;19921;-69
2022/05/07 10:10:03;;;;;;;;;;;;;;;27.44;35.11;102411.16;5000598;28;19922;-70
2022/05/07 10:12:29;;;;;;;;;;;;;;;27.09;35.29;102419.94;5001862;28;19918;-70
2022/05/07 10:15:08;;;;;;;;;;;;;;;26.22;37.91;102417.69;5002964;28;20005;-69
2022/05/07 10:17:35;;;;;;;;;;;;;;;26.37;37.75;102426.63;5003141;28;19917;-70
2022/05/07 10:20:09;;;;;;;;;;;;;;;26.12;38.76;102410.34;4999055;28;19929;-69
2022/05/07 10:22:34;;;;;;;;;;;;;;;25.78;39.26;102420.56;5009150;28;19949;-70
2022/05/07 10:25:07;;;;;;;;;;;;;;;24.92;41.34;102423.84;4990061;28;19917;-70
2022/05/07 10:27:32;;;;;;;;;;;;;;;24.95;41.45;102426.03;5002624;28;19925;-71
2022/05/07 10:30:08;;;;;;;;;;;;;;;24.54;41.19;102429.19;4999715;28;20305;-71
2022/05/07 10:32:48;;;;;;;;;;;;;;;24.52;40.13;102435.00;4997991;28;19928;-70
2022/05/07 10:35:14;;;;;;;;;;;;;;;25.02;40.12;102429.28;5002718;28;19961;-69
2022/05/07 10:37:40;;;;;;;;;;;;;;;25.62;38.56;102427.28;5003658;28;20435;-68
2022/05/07 10:40:10;;;;;;;;;;;;;;;25.31;40.13;102426.66;5002258;28;20472;-69
2022/05/07 10:42:41;;;;;;;;;;;;;;;25.66;39.12;102426.44;5001476;28;19926;-70
2022/05/07 10:45:07;;;;;;;;;;;;;;;25.56;38.71;102432.03;5001023;28;19910;-69
2022/05/07 10:47:32;;;;;;;;;;;;;;;26.75;36.82;102430.34;4999205;28;20405;-70
2022/05/07 10:50:09;;;;;;;;;;;;;;;26.16;37.59;102427.13;5000350;28;20009;-70
2022/05/07 10:52:35;;;;;;;;;;;;;;;26.43;38.05;102422.69;5002779;28;20366;-68
2022/05/07 10:55:23;;;;;;;;;;;;;;;27.30;35.51;102424.03;5001269;28;19933;-71
2022/05/07 10:57:48;;;;;;;;;;;;;;;26.93;36.63;102430.38;4993328;28;20413;-69
2022/05/07 11:00:17;;;;;;;;;;;;;;;26.59;37.31;102423.34;4993544;28;19906;-69
2022/05/07 11:02:43;;;;;;;;;;;;;;;26.65;37.01;102425.72;5002131;28;19922;-70
2022/05/07 11:05:10;;;;;;;;;;;;;;;26.40;37.24;102408.66;5012609;28;19921;-71
2022/05/07 11:07:35;;;;;;;;;;;;;;;26.58;37.41;102418.91;4993260;28;19922;-70
2022/05/07 11:10:05;;;;;;;;;;;;;;;25.52;38.98;102424.63;4992934;28;19928;-69
2022/05/07 11:12:30;;;;;;;;;;;;;;;25.84;38.33;102419.41;4993185;28;20001;-68
2022/05/07 11:14:56;;;;;;;;;;;;;;;26.39;37.01;102424.41;4993473;28;19921;-69
2022/05/07 11:17:28;;;;;;;;;;;;;;;26.21;36.83;102427.88;4992912;28;19928;-72
2022/05/07 11:19:54;;;;;;;;;;;;;;;26.33;36.43;102420.06;4992807;28;19918;-71
2022/05/07 11:22:23;;;;;;;;;;;;;;;26.06;37.08;102422.53;4992595;28;19922;-71
2022/05/07 11:24:54;;;;;;;;;;;;;;;25.70;38.17;102424.75;4993071;28;19922;-70
2022/05/07 11:27:20;;;;;;;;;;;;;;;26.24;37.86;102416.25;4992992;28;19917;-72
2022/05/07 11:29:45;;;;;;;;;;;;;;;25.57;38.11;102424.59;5012364;28;19921;-69
2022/05/07 11:32:12;;;;;;;;;;;;;;;25.15;40.11;102425.94;5026706;28;19975;-72
2022/05/07 11:34:38;;;;;;;;;;;;;;;26.26;37.11;102416.81;5003023;28;20025;-73
2022/05/07 11:37:16;;;;;;;;;;;;;;;27.22;36.01;102423.91;5000774;28;19922;-71
2022/05/07 11:39:54;;;;;;;;;;;;;;;26.83;36.26;102419.47;5001461;28;20001;-70
2022/05/07 11:42:27;;;;;;;;;;;;;;;25.54;37.88;102425.97;4998351;28;20307;-71
2022/05/07 11:47:36;;;;;;;;;;;;;;;26.54;37.22;102420.63;5005934;28;19928;-71
2022/05/07 11:50:08;;;;;;;;;;;;;;;27.02;35.97;102413.97;5006951;28;20020;-70
2022/05/07 11:52:34;;;;;;;;;;;;;;;27.19;36.74;102414.28;5007006;28;20005;-70
2022/05/07 11:55:06;;;;;;;;;;;;;;;26.26;37.98;102416.00;5008095;28;20278;-73
2022/05/07 11:57:32;;;;;;;;;;;;;;;25.55;38.44;102415.78;5013727;28;19914;-70
2022/05/07 12:00:11;;;;;;;;;;;;;;;26.80;36.62;102416.47;5014973;28;19925;-73
2022/05/07 12:02:38;;;;;;;;;;;;;;;26.56;36.25;102413.72;5005285;28;20309;-73
2022/05/07 12:05:03;;;;;;;;;;;;;;;26.56;35.32;102410.94;5005065;28;19928;-72
2022/05/07 12:07:38;;;;;;;;;;;;;;;26.72;35.51;102408.84;5004254;28;19922;-72
2022/05/07 12:10:04;;;;;;;;;;;;;;;27.30;35.35;102417.72;5007027;28;19933;-72
2022/05/07 12:12:29;;;;;;;;;;;;;;;28.07;33.68;102408.72;5006752;28;20365;-70
2022/05/07 12:14:54;;;;;;;;;;;;;;;28.51;32.70;102397.06;5003848;28;19917;-71
2022/05/07 12:20:04;;;;;;;;;;;;;;;27.74;33.38;102410.66;5004281;28;20460;-72
2022/05/07 12:30:40;;;;;;;;;;;;;;;25.44;38.36;102403.19;5007566;28;19929;-71
2022/05/07 12:33:06;;;;;;;;;;;;;;;26.35;36.60;102400.44;5004984;28;20389;-72
2022/05/07 12:35:32;;;;;;;;;;;;;;;27.68;33.85;102392.53;5009419;28;19921;-71
2022/05/07 12:37:57;;;;;;;;;;;;;;;27.49;34.53;102399.22;5008670;28;19922;-70
2022/05/07 12:40:23;;;;;;;;;;;;;;;28.08;32.96;102393.78;5004628;28;19976;-71
2022/05/07 12:42:48;;;;;;;;;;;;;;;28.43;31.41;102387.56;5001397;28;19921;-72
2022/05/07 12:45:14;;;;;;;;;;;;;;;29.25;30.11;102387.44;5002551;28;19956;-70
2022/05/07 12:47:39;;;;;;;;;;;;;;;27.43;32.36;102397.66;5002921;28;20017;-72
2022/05/07 12:50:06;;;;;;;;;;;;;;;28.03;31.19;102393.06;5003185;28;20336;-70
2022/05/07 12:52:32;;;;;;;;;;;;;;;27.97;31.25;102389.53;5001376;28;20362;-71
2022/05/07 12:54:57;;;;;;;;;;;;;;;28.18;31.74;102396.34;5003672;28;19925;-72
2022/05/07 12:57:22;;;;;;;;;;;;;;;28.60;31.39;102389.72;5009351;28;19922;-70
2022/05/07 12:59:48;;;;;;;;;;;;;;;29.70;30.78;102391.84;4996639;28;19933;-71
2022/05/07 13:02:13;;;;;;;;;;;;;;;27.88;32.99;102401.56;5002934;28;19999;-71
2022/05/07 13:04:38;;;;;;;;;;;;;;;28.80;32.02;102400.34;4992854;28;20006;-71
2022/05/07 13:07:04;;;;;;;;;;;;;;;29.10;31.74;102393.31;4991733;28;19929;-71
2022/05/07 13:09:29;;;;;;;;;;;;;;;28.00;33.03;102400.00;5005462;28;19978;-72
2022/05/07 13:11:55;;;;;;;;;;;;;;;28.92;32.10;102399.81;4996552;28;19913;-74
2022/05/07 13:14:21;;;;;;;;;;;;;;;29.12;31.62;102400.19;5002420;28;20056;-70
2022/05/07 13:16:46;;;;;;;;;;;;;;;28.88;31.00;102402.38;5001823;28;19929;-71
2022/05/07 13:19:11;;;;;;;;;;;;;;;29.14;30.45;102402.66;4996940;28;20003;-75